Time;durP1;ratioP1;P1;durP2;ratioP2;P2;SDS_P1;SDS_P2;PMS_P1;PMS_P2;Temp;Humidity;BMP_temperature;BMP_pressure;BME280_temperature;BME280_humidity;BME280_pressure;Samples;Min_cycle;Max_cycle;Signal;HPM_P1;HPM_P2
2023/09/07 06:54:37;;;;;;;4.97;2.97;;;27.00;99.90;;;;;;4527124;23;20236;-73
2023/09/07 06:57:07;;;;;;;3.03;2.25;;;27.30;99.90;;;;;;4954301;28;20307;-73
2023/09/07 06:59:33;;;;;;;3.00;2.40;;;27.20;99.90;;;;;;4957269;28;20285;-73
2023/09/07 07:02:00;;;;;;;3.00;2.40;;;27.10;99.90;;;;;;4937208;28;20271;-73
2023/09/07 07:04:27;;;;;;;3.88;2.50;;;27.20;99.90;;;;;;4928815;29;20201;-74
2023/09/07 07:06:54;;;;;;;3.80;2.40;;;26.90;99.90;;;;;;4935604;29;20244;-72
2023/09/07 07:09:21;;;;;;;2.92;2.10;;;26.60;99.90;;;;;;4935435;29;20208;-73
2023/09/07 07:11:50;;;;;;;4.72;2.78;;;26.80;99.90;;;;;;4938121;29;20256;-73
2023/09/07 07:14:17;;;;;;;3.08;2.20;;;26.90;99.90;;;;;;4937640;29;20215;-74
2023/09/07 07:16:43;;;;;;;3.65;2.25;;;26.90;99.90;;;;;;4938635;29;20295;-74
2023/09/07 07:19:10;;;;;;;6.65;2.50;;;27.50;99.90;;;;;;4939284;29;20244;-75
2023/09/07 07:21:37;;;;;;;3.03;2.17;;;28.40;99.90;;;;;;4938922;29;20236;-75
2023/09/07 07:24:06;;;;;;;2.22;1.80;;;28.40;99.90;;;;;;4938945;29;20243;-77
2023/09/07 07:26:33;;;;;;;3.58;1.95;;;28.70;99.90;;;;;;4919879;29;20206;-77
2023/09/07 07:29:02;;;;;;;2.58;2.10;;;29.00;99.90;;;;;;4920190;29;20233;-74
2023/09/07 07:31:30;;;;;;;2.70;2.05;;;29.50;99.90;;;;;;4937927;29;20319;-73
2023/09/07 07:33:57;;;;;;;3.05;2.03;;;29.50;99.90;;;;;;4938793;29;20204;-75
2023/09/07 07:36:24;;;;;;;3.05;2.20;;;29.30;99.90;;;;;;4938895;29;20305;-73
2023/09/07 07:38:51;;;;;;;2.90;2.15;;;29.50;99.90;;;;;;4938543;29;20207;-74
2023/09/07 07:41:17;;;;;;;2.78;1.90;;;28.60;99.90;;;;;;4937824;29;20319;-72
2023/09/07 07:43:44;;;;;;;3.42;2.15;;;28.40;99.90;;;;;;4938150;29;20240;-71
2023/09/07 07:46:15;;;;;;;3.00;2.15;;;28.40;99.90;;;;;;4939005;29;20264;-74
2023/09/07 07:48:42;;;;;;;2.53;1.92;;;28.40;99.90;;;;;;4944781;29;20201;-74
2023/09/07 07:51:09;;;;;;;4.32;2.10;;;28.20;99.90;;;;;;4931966;29;20259;-72
2023/09/07 07:53:36;;;;;;;5.82;2.30;;;28.60;99.90;;;;;;4929086;29;20227;-74
2023/09/07 07:56:04;;;;;;;4.97;2.40;;;28.40;99.90;;;;;;4934327;29;20236;-71
2023/09/07 07:58:30;;;;;;;2.80;1.65;;;28.70;99.90;;;;;;4936976;29;20287;-74
2023/09/07 08:00:58;;;;;;;2.78;1.95;;;28.70;99.90;;;;;;4937084;29;20268;-73
2023/09/07 08:03:26;;;;;;;2.47;1.77;;;28.60;99.90;;;;;;4935993;29;20657;-70
2023/09/07 08:05:53;;;;;;;3.08;2.13;;;28.70;99.90;;;;;;4936537;29;20246;-70
2023/09/07 08:08:20;;;;;;;2.63;1.83;;;29.10;99.90;;;;;;4936144;29;20288;-72
2023/09/07 08:10:47;;;;;;;3.65;2.00;;;29.40;99.90;;;;;;4935657;29;20319;-75
2023/09/07 08:13:14;;;;;;;2.10;1.80;;;29.10;99.90;;;;;;4936968;29;20323;-72
2023/09/07 08:15:41;;;;;;;3.00;2.20;;;28.60;99.90;;;;;;4936403;29;20219;-72
2023/09/07 08:18:08;;;;;;;2.70;2.08;;;28.40;99.90;;;;;;4935760;29;20303;-71
2023/09/07 08:20:39;;;;;;;2.22;1.70;;;28.40;99.90;;;;;;4935882;29;20718;-70
2023/09/07 08:23:08;;;;;;;3.92;2.10;;;28.20;99.90;;;;;;4935888;29;20303;-71
2023/09/07 08:25:35;;;;;;;3.13;1.98;;;27.70;99.90;;;;;;4934918;29;20204;-72
2023/09/07 08:28:05;;;;;;;2.95;1.98;;;28.40;99.90;;;;;;4936776;29;20240;-74
2023/09/07 08:30:32;;;;;;;2.78;1.90;;;28.00;99.90;;;;;;4935298;29;20285;-72
2023/09/07 08:32:59;;;;;;;3.28;2.05;;;27.90;99.90;;;;;;4934973;29;20263;-72
2023/09/07 08:35:27;;;;;;;4.47;2.05;;;27.40;99.90;;;;;;4942048;29;20232;-70
2023/09/07 08:37:57;;;;;;;3.10;1.95;;;27.30;99.90;;;;;;4916816;29;20261;-70
2023/09/07 08:40:27;;;;;;;3.45;2.08;;;27.80;99.90;;;;;;4933296;29;20642;-71
2023/09/07 08:42:54;;;;;;;2.65;2.10;;;27.90;99.90;;;;;;4936465;29;20296;-70
2023/09/07 08:45:23;;;;;;;2.55;1.85;;;27.70;99.90;;;;;;4929462;29;20202;-69
2023/09/07 08:47:51;;;;;;;2.85;1.77;;;27.40;99.90;;;;;;4939194;29;20736;-68
2023/09/07 08:50:19;;;;;;;2.42;1.80;;;27.20;99.90;;;;;;4948583;28;20204;-68
2023/09/07 08:52:48;;;;;;;3.20;1.70;;;26.80;99.90;;;;;;4930672;29;20271;-69
2023/09/07 08:55:17;;;;;;;4.55;2.22;;;27.10;99.90;;;;;;4936875;29;20255;-69
2023/09/07 08:57:43;;;;;;;2.60;1.85;;;27.10;99.90;;;;;;4937576;29;20635;-73
2023/09/07 09:00:16;;;;;;;3.30;1.88;;;27.00;99.90;;;;;;4936921;29;20236;-69
2023/09/07 09:02:43;;;;;;;2.30;1.60;;;27.30;99.90;;;;;;4936987;29;20229;-71
2023/09/07 09:05:11;;;;;;;3.55;1.95;;;27.80;99.90;;;;;;4936897;29;20698;-71
2023/09/07 09:07:39;;;;;;;2.75;2.00;;;27.60;99.90;;;;;;4937003;29;20668;-71
2023/09/07 09:10:07;;;;;;;3.65;2.15;;;27.50;99.90;;;;;;4936768;29;20244;-72
2023/09/07 09:12:35;;;;;;;2.55;1.63;;;27.30;99.90;;;;;;4936741;29;20638;-72
2023/09/07 09:15:03;;;;;;;2.33;1.80;;;27.20;99.90;;;;;;4936672;29;20296;-72
2023/09/07 09:17:30;;;;;;;3.08;1.75;;;27.10;99.90;;;;;;4936795;29;20213;-71
2023/09/07 09:19:57;;;;;;;5.13;1.92;;;26.90;99.90;;;;;;4937035;29;20743;-71
2023/09/07 09:22:25;;;;;;;2.55;1.90;;;27.20;99.90;;;;;;4937053;29;20679;-72
2023/09/07 09:24:51;;;;;;;2.75;1.90;;;27.40;99.90;;;;;;4937086;29;20216;-71
2023/09/07 09:27:18;;;;;;;3.55;1.80;;;27.40;99.90;;;;;;4936794;29;20663;-74
2023/09/07 09:29:47;;;;;;;4.30;1.95;;;27.20;99.90;;;;;;4937081;29;20255;-73
2023/09/07 09:32:15;;;;;;;2.42;2.00;;;27.10;99.90;;;;;;4936444;29;20324;-72
2023/09/07 09:34:44;;;;;;;2.58;1.73;;;26.60;99.90;;;;;;4936489;29;20248;-72
2023/09/07 09:37:15;;;;;;;2.38;1.92;;;26.50;99.90;;;;;;4935819;29;20243;-73
2023/09/07 09:39:43;;;;;;;3.00;2.30;;;26.00;99.90;;;;;;4936871;29;20219;-70
2023/09/07 09:42:11;;;;;;;2.90;2.10;;;25.80;99.90;;;;;;4936140;29;20323;-71
2023/09/07 09:44:39;;;;;;;2.38;1.92;;;25.90;99.90;;;;;;4935647;29;20236;-72
2023/09/07 09:47:09;;;;;;;5.90;2.50;;;26.00;99.90;;;;;;4935895;29;20296;-72
2023/09/07 09:49:38;;;;;;;4.53;2.00;;;25.90;99.90;;;;;;4955002;29;20208;-71
2023/09/07 09:52:05;;;;;;;4.03;2.22;;;25.80;99.90;;;;;;4938958;28;20259;-71
2023/09/07 09:54:35;;;;;;;3.28;2.38;;;25.80;99.90;;;;;;4936512;29;20758;-72
2023/09/07 09:57:03;;;;;;;3.63;1.90;;;25.80;99.90;;;;;;4936261;29;20251;-72
2023/09/07 09:59:29;;;;;;;3.78;1.70;;;25.80;99.90;;;;;;4935466;29;20255;-73
2023/09/07 10:01:57;;;;;;;4.25;1.80;;;25.80;99.90;;;;;;4935111;29;20275;-72
2023/09/07 10:04:27;;;;;;;2.65;1.92;;;25.80;99.90;;;;;;4935655;29;20244;-72
2023/09/07 10:06:56;;;;;;;2.45;1.83;;;26.00;99.90;;;;;;4936578;29;20546;-72
2023/09/07 10:09:23;;;;;;;3.83;1.88;;;26.10;99.90;;;;;;4935955;29;20236;-72
2023/09/07 10:11:54;;;;;;;3.08;1.65;;;26.00;99.90;;;;;;4936022;29;20687;-72
2023/09/07 10:14:21;;;;;;;2.40;1.70;;;26.10;99.90;;;;;;4936367;29;20643;-72
2023/09/07 10:16:50;;;;;;;2.35;1.75;;;26.20;99.90;;;;;;4935971;29;20301;-72
2023/09/07 10:19:18;;;;;;;4.57;2.00;;;26.20;99.90;;;;;;4935944;29;20213;-72
2023/09/07 10:21:46;;;;;;;2.45;1.63;;;26.30;99.90;;;;;;4935764;29;20328;-73
2023/09/07 10:24:24;;;;;;;2.95;1.60;;;26.40;99.90;;;;;;4936178;29;20244;-72
2023/09/07 10:26:57;;;;;;;2.50;2.00;;;26.30;99.90;;;;;;4935971;29;20254;-72
2023/09/07 10:29:25;;;;;;;3.03;1.40;;;26.20;99.90;;;;;;4936128;29;20225;-72
2023/09/07 10:31:52;;;;;;;2.20;1.40;;;26.20;99.90;;;;;;4935601;29;20263;-72
2023/09/07 10:34:20;;;;;;;2.47;1.80;;;26.40;99.90;;;;;;4936288;29;20247;-72
2023/09/07 10:36:52;;;;;;;3.03;1.90;;;26.50;99.90;;;;;;4935952;29;20207;-73
2023/09/07 10:39:19;;;;;;;1.65;1.45;;;26.70;99.90;;;;;;4935422;29;20266;-72
2023/09/07 10:41:47;;;;;;;1.80;1.45;;;26.80;99.90;;;;;;4935170;29;20283;-72
2023/09/07 10:44:14;;;;;;;2.25;1.60;;;27.00;99.90;;;;;;4935627;29;20205;-72
2023/09/07 10:46:41;;;;;;;2.17;1.67;;;27.00;99.90;;;;;;4935659;29;20296;-72
2023/09/07 10:49:12;;;;;;;2.22;1.42;;;27.00;99.90;;;;;;4950055;29;20626;-72
2023/09/07 10:51:44;;;;;;;6.00;1.73;;;27.00;99.90;;;;;;4945832;28;20235;-73
2023/09/07 10:54:19;;;;;;;2.75;1.40;;;27.00;99.90;;;;;;4935794;29;20299;-73
2023/09/07 10:56:47;;;;;;;3.15;1.40;;;27.10;99.90;;;;;;4935509;29;20236;-72
2023/09/07 10:59:14;;;;;;;2.38;1.50;;;27.10;99.90;;;;;;4935869;29;20746;-72
2023/09/07 11:01:41;;;;;;;2.05;1.55;;;27.20;99.90;;;;;;4935907;29;20287;-73
2023/09/07 11:04:11;;;;;;;2.00;1.40;;;27.30;99.90;;;;;;4935869;29;20211;-73
2023/09/07 11:06:39;;;;;;;2.00;1.50;;;27.20;99.90;;;;;;4935750;29;20245;-73
2023/09/07 11:09:08;;;;;;;1.73;1.25;;;27.30;99.90;;;;;;4935749;29;20208;-72
2023/09/07 11:11:38;;;;;;;1.77;1.50;;;27.30;99.90;;;;;;4935445;29;20239;-73
2023/09/07 11:14:05;;;;;;;2.83;1.73;;;27.20;99.90;;;;;;4935512;29;20240;-72
2023/09/07 11:16:34;;;;;;;2.85;1.60;;;27.20;99.90;;;;;;4935236;29;20240;-72
2023/09/07 11:19:04;;;;;;;1.63;1.25;;;27.20;99.90;;;;;;4935263;29;20695;-73
2023/09/07 11:21:32;;;;;;;1.55;1.23;;;27.30;99.90;;;;;;4935429;29;20461;-73
2023/09/07 11:23:59;;;;;;;1.75;1.38;;;27.30;99.90;;;;;;4935715;29;20205;-73
2023/09/07 11:26:26;;;;;;;1.92;1.50;;;27.20;99.90;;;;;;4935213;29;20243;-73
2023/09/07 11:28:55;;;;;;;3.10;1.30;;;27.40;99.90;;;;;;4935351;29;20241;-72
2023/09/07 11:31:22;;;;;;;1.80;1.45;;;27.40;99.90;;;;;;4935700;29;20264;-73
2023/09/07 11:33:49;;;;;;;1.83;1.40;;;27.50;99.90;;;;;;4935588;29;20209;-73
2023/09/07 11:36:16;;;;;;;2.05;1.35;;;27.60;99.90;;;;;;4935354;29;20211;-72
2023/09/07 11:38:44;;;;;;;4.68;1.50;;;27.60;99.90;;;;;;4935402;29;20247;-72
2023/09/07 11:41:11;;;;;;;2.63;1.60;;;27.70;99.90;;;;;;4935047;29;20236;-73
2023/09/07 11:43:39;;;;;;;2.28;1.45;;;27.70;99.90;;;;;;4935602;29;20628;-73
2023/09/07 11:46:07;;;;;;;2.10;1.70;;;27.60;99.90;;;;;;4935409;29;20205;-72
2023/09/07 11:48:34;;;;;;;2.35;1.45;;;27.60;99.90;;;;;;4934884;29;20241;-72
2023/09/07 11:51:02;;;;;;;1.95;1.40;;;27.70;99.90;;;;;;4935401;29;20622;-73
2023/09/07 11:53:29;;;;;;;2.28;1.50;;;27.80;99.90;;;;;;4935308;29;20215;-73
2023/09/07 11:55:57;;;;;;;2.83;1.73;;;27.80;99.90;;;;;;4935056;29;20205;-73
2023/09/07 11:58:26;;;;;;;1.90;1.65;;;27.60;99.90;;;;;;4935253;29;20628;-72
2023/09/07 12:00:53;;;;;;;1.27;1.10;;;27.60;99.90;;;;;;4936992;29;20280;-73
2023/09/07 12:03:22;;;;;;;2.00;1.40;;;27.70;99.90;;;;;;4938467;29;20213;-72
2023/09/07 12:05:49;;;;;;;3.28;1.65;;;27.80;99.90;;;;;;4938365;29;20298;-73
2023/09/07 12:08:16;;;;;;;2.33;1.63;;;27.80;99.90;;;;;;4938477;29;20240;-72
2023/09/07 12:10:43;;;;;;;1.70;1.60;;;27.80;99.90;;;;;;4938453;29;21541;-73
2023/09/07 12:13:10;;;;;;;2.65;1.60;;;27.80;99.90;;;;;;4938309;29;20248;-73
2023/09/07 12:15:37;;;;;;;3.33;1.65;;;27.70;99.90;;;;;;4938669;29;20627;-72
2023/09/07 12:18:04;;;;;;;2.58;1.80;;;27.80;99.90;;;;;;4938411;29;20632;-72
2023/09/07 12:20:34;;;;;;;2.83;1.70;;;27.90;99.90;;;;;;4938243;29;20248;-72
2023/09/07 12:23:02;;;;;;;2.45;1.50;;;27.90;99.90;;;;;;4938179;29;20236;-72
2023/09/07 12:25:28;;;;;;;3.60;1.60;;;28.10;99.90;;;;;;4938136;29;20212;-72
2023/09/07 12:27:56;;;;;;;2.25;1.50;;;28.20;99.90;;;;;;4938576;29;20303;-72
2023/09/07 12:30:24;;;;;;;2.40;1.45;;;28.30;99.90;;;;;;4938400;29;20555;-72
2023/09/07 12:32:51;;;;;;;3.55;1.70;;;28.40;99.90;;;;;;4938128;29;20220;-73
2023/09/07 12:35:19;;;;;;;5.80;1.50;;;28.40;99.90;;;;;;4937887;29;20698;-72
2023/09/07 12:37:48;;;;;;;3.30;1.80;;;28.40;99.90;;;;;;4938163;29;20216;-72
2023/09/07 12:40:14;;;;;;;1.67;1.50;;;28.50;99.90;;;;;;4937933;29;20304;-72
2023/09/07 12:42:42;;;;;;;3.70;1.70;;;28.50;99.90;;;;;;4937920;29;20275;-71
2023/09/07 12:45:10;;;;;;;2.03;1.40;;;28.40;99.90;;;;;;4937843;29;20640;-73
2023/09/07 12:47:37;;;;;;;6.40;2.20;;;28.40;99.90;;;;;;4937811;29;20621;-72
2023/09/07 12:50:06;;;;;;;3.17;1.45;;;28.40;99.90;;;;;;4937764;29;20232;-72
2023/09/07 12:52:35;;;;;;;3.05;1.38;;;28.40;99.90;;;;;;4938654;29;20288;-72
2023/09/07 12:55:04;;;;;;;4.78;1.90;;;28.40;99.90;;;;;;4937708;29;20691;-72
2023/09/07 12:57:31;;;;;;;2.53;1.52;;;28.40;99.90;;;;;;4937738;29;20223;-72
2023/09/07 12:59:57;;;;;;;2.75;1.65;;;28.50;99.90;;;;;;4937179;29;20307;-72
2023/09/07 13:02:24;;;;;;;2.35;1.63;;;28.50;99.90;;;;;;4937272;29;20272;-73
2023/09/07 13:04:51;;;;;;;3.00;1.80;;;28.60;99.90;;;;;;4937659;29;20240;-72
2023/09/07 13:07:18;;;;;;;2.83;1.83;;;28.60;99.90;;;;;;4937737;29;20248;-72
2023/09/07 13:09:45;;;;;;;2.03;1.58;;;28.60;99.90;;;;;;4937364;29;20255;-72
2023/09/07 13:12:13;;;;;;;2.58;1.63;;;28.60;99.90;;;;;;4936818;29;20660;-72
2023/09/07 13:14:40;;;;;;;2.13;1.70;;;28.60;99.90;;;;;;4937323;29;20251;-72
2023/09/07 13:17:10;;;;;;;2.75;1.65;;;28.60;99.90;;;;;;4937310;29;20251;-72
2023/09/07 13:19:37;;;;;;;1.88;1.40;;;28.80;99.90;;;;;;4937355;29;20248;-72
2023/09/07 13:22:06;;;;;;;2.47;2.25;;;28.70;99.90;;;;;;4936766;29;20272;-72
2023/09/07 13:24:32;;;;;;;2.05;1.55;;;28.60;99.90;;;;;;4937313;29;20219;-72
2023/09/07 13:26:59;;;;;;;2.25;1.77;;;28.70;99.90;;;;;;4937446;29;20299;-72
2023/09/07 13:29:28;;;;;;;2.28;1.90;;;28.80;99.90;;;;;;4937062;29;20296;-72
2023/09/07 13:31:54;;;;;;;2.40;1.60;;;28.90;99.90;;;;;;4937010;29;20699;-72
2023/09/07 13:34:22;;;;;;;2.20;1.77;;;28.90;99.90;;;;;;4937365;29;20655;-72
2023/09/07 13:36:49;;;;;;;3.53;1.67;;;28.80;99.90;;;;;;4936728;29;20296;-72
2023/09/07 13:39:16;;;;;;;2.28;1.77;;;28.90;99.90;;;;;;4936720;29;20244;-72
2023/09/07 13:41:43;;;;;;;1.73;1.35;;;28.90;99.90;;;;;;4936477;29;20228;-72
2023/09/07 13:44:10;;;;;;;2.70;1.90;;;29.10;99.90;;;;;;4937016;29;20240;-72
2023/09/07 13:46:38;;;;;;;3.88;1.80;;;29.10;99.90;;;;;;4937106;29;20296;-72
2023/09/07 13:49:05;;;;;;;2.55;2.00;;;29.10;99.90;;;;;;4936982;29;20248;-72
2023/09/07 13:51:37;;;;;;;3.25;2.20;;;29.10;99.90;;;;;;4936803;29;20267;-72
2023/09/07 13:54:04;;;;;;;2.25;1.55;;;29.30;99.90;;;;;;4936571;29;20260;-72
2023/09/07 13:56:31;;;;;;;2.40;1.77;;;29.30;99.90;;;;;;4936306;29;20244;-72
2023/09/07 13:58:58;;;;;;;4.47;1.98;;;29.30;99.90;;;;;;4936303;29;20209;-72
2023/09/07 14:01:25;;;;;;;2.72;1.95;;;29.20;99.90;;;;;;4936581;29;20232;-72
2023/09/07 14:03:53;;;;;;;2.10;1.75;;;29.20;99.90;;;;;;4936454;29;20332;-73
2023/09/07 14:06:23;;;;;;;3.25;1.55;;;29.20;99.90;;;;;;4936383;29;20237;-72
2023/09/07 14:08:51;;;;;;;3.03;1.77;;;29.20;99.90;;;;;;4936218;29;20217;-72
2023/09/07 14:11:17;;;;;;;2.00;1.73;;;29.30;99.90;;;;;;4936264;29;20224;-72
2023/09/07 14:13:44;;;;;;;4.22;1.80;;;29.30;99.90;;;;;;4934313;29;20307;-72
2023/09/07 14:16:11;;;;;;;3.92;1.95;;;29.40;99.90;;;;;;4936262;29;20740;-71
2023/09/07 14:18:38;;;;;;;2.70;1.90;;;29.50;99.90;;;;;;4941611;29;20231;-72
2023/09/07 14:21:06;;;;;;;2.58;1.80;;;29.50;99.90;;;;;;4955096;28;20260;-72
2023/09/07 14:23:33;;;;;;;7.45;2.20;;;29.40;99.90;;;;;;4939154;28;20331;-72
2023/09/07 14:26:00;;;;;;;3.80;2.00;;;29.30;99.90;;;;;;4935938;29;20212;-72
2023/09/07 14:28:27;;;;;;;7.78;1.70;;;29.20;99.90;;;;;;4935368;29;20209;-72
2023/09/07 14:30:54;;;;;;;3.45;2.05;;;29.30;99.90;;;;;;4941934;29;20252;-72
2023/09/07 14:33:21;;;;;;;2.63;2.00;;;29.40;99.90;;;;;;4941344;28;20244;-72
2023/09/07 14:35:53;;;;;;;2.50;1.75;;;29.40;99.90;;;;;;4935722;29;20223;-72
2023/09/07 14:38:23;;;;;;;4.82;1.58;;;29.50;99.90;;;;;;4935886;29;20211;-72
2023/09/07 14:40:50;;;;;;;3.45;1.83;;;29.60;99.90;;;;;;4922562;29;20316;-72
2023/09/07 14:43:17;;;;;;;2.75;1.73;;;29.40;99.90;;;;;;4928816;29;20620;-72
2023/09/07 14:45:45;;;;;;;2.65;2.10;;;29.40;99.90;;;;;;4935716;29;20204;-72
2023/09/07 14:48:11;;;;;;;2.78;1.80;;;29.50;99.90;;;;;;4935420;29;20247;-72
2023/09/07 14:50:39;;;;;;;2.63;1.70;;;29.50;99.90;;;;;;4935744;29;20300;-72
2023/09/07 14:53:06;;;;;;;3.05;1.90;;;29.60;99.90;;;;;;4935287;29;20219;-72
2023/09/07 14:55:34;;;;;;;2.60;1.90;;;29.60;99.90;;;;;;4935298;29;20218;-72
2023/09/07 14:58:01;;;;;;;2.85;1.52;;;29.60;99.90;;;;;;4934712;29;20292;-72
2023/09/07 15:00:31;;;;;;;4.28;1.92;;;29.60;99.90;;;;;;4934553;29;20249;-71
2023/09/07 15:02:59;;;;;;;2.25;1.70;;;29.40;99.90;;;;;;4935032;29;20247;-71
2023/09/07 15:05:26;;;;;;;2.72;2.28;;;29.30;99.90;;;;;;4935374;29;20251;-72
2023/09/07 15:07:52;;;;;;;2.95;2.10;;;29.20;99.90;;;;;;4938759;29;20283;-73
2023/09/07 15:10:19;;;;;;;2.47;1.80;;;29.30;99.90;;;;;;4935584;29;20611;-73
2023/09/07 15:12:47;;;;;;;3.45;1.55;;;29.30;99.90;;;;;;4934932;29;20280;-73
2023/09/07 15:15:14;;;;;;;4.88;1.65;;;29.20;99.90;;;;;;4935600;29;20248;-73
2023/09/07 15:17:47;;;;;;;3.08;1.67;;;29.20;99.90;;;;;;4934293;29;20644;-73
2023/09/07 15:20:14;;;;;;;1.85;1.63;;;29.10;99.90;;;;;;4935520;29;20258;-72
2023/09/07 15:22:41;;;;;;;2.00;1.50;;;29.20;99.90;;;;;;4934286;29;20271;-72
2023/09/07 15:25:08;;;;;;;4.00;1.60;;;29.10;99.90;;;;;;4935478;29;20291;-72
2023/09/07 15:27:35;;;;;;;2.20;1.50;;;29.20;99.90;;;;;;4935221;29;20703;-72
2023/09/07 15:30:04;;;;;;;3.03;2.28;;;29.10;99.90;;;;;;4934235;29;20255;-72
2023/09/07 15:32:31;;;;;;;1.85;1.48;;;29.10;99.90;;;;;;4935651;29;20239;-72
2023/09/07 15:34:58;;;;;;;4.57;1.92;;;29.20;99.90;;;;;;4937514;29;20651;-72
2023/09/07 15:37:25;;;;;;;4.35;1.80;;;29.10;99.90;;;;;;4939608;29;20272;-73
2023/09/07 15:39:52;;;;;;;2.80;2.03;;;29.20;99.90;;;;;;4939094;29;20299;-73
2023/09/07 15:42:19;;;;;;;3.35;1.80;;;29.20;99.90;;;;;;4938680;29;20312;-71
2023/09/07 15:44:46;;;;;;;2.15;1.70;;;29.20;99.90;;;;;;4932919;29;20209;-72
2023/09/07 15:47:14;;;;;;;1.73;1.58;;;29.20;99.90;;;;;;4928081;29;20237;-72
2023/09/07 15:49:43;;;;;;;2.00;1.70;;;29.30;99.90;;;;;;4928945;29;20280;-72
2023/09/07 15:52:10;;;;;;;2.17;1.73;;;29.30;99.90;;;;;;4929327;29;20281;-71
2023/09/07 15:54:37;;;;;;;2.65;1.73;;;29.20;99.90;;;;;;4929301;29;20240;-72
2023/09/07 15:57:05;;;;;;;3.30;1.83;;;29.20;99.90;;;;;;4927055;29;20228;-72
2023/09/07 15:59:32;;;;;;;3.20;1.92;;;29.20;99.90;;;;;;4927514;29;20280;-72
2023/09/07 16:01:59;;;;;;;2.00;1.67;;;29.20;99.90;;;;;;4927683;29;20313;-72
2023/09/07 16:04:27;;;;;;;2.30;1.80;;;29.20;99.90;;;;;;4927310;29;20260;-72
2023/09/07 16:06:54;;;;;;;2.80;1.90;;;29.10;99.90;;;;;;4927666;29;20217;-72
2023/09/07 16:09:21;;;;;;;2.47;1.60;;;29.10;99.90;;;;;;4927993;29;20232;-73
2023/09/07 16:11:49;;;;;;;3.05;1.90;;;29.20;99.90;;;;;;4928977;29;20305;-72
2023/09/07 16:14:16;;;;;;;3.00;1.80;;;29.10;99.90;;;;;;4927867;29;20213;-72
2023/09/07 16:16:43;;;;;;;3.65;1.90;;;29.00;99.90;;;;;;4928550;29;20722;-73
2023/09/07 16:19:10;;;;;;;3.92;1.77;;;29.00;99.90;;;;;;4926804;29;20700;-72
2023/09/07 16:21:38;;;;;;;2.20;1.98;;;29.00;99.90;;;;;;4919069;29;20265;-72
2023/09/07 16:24:06;;;;;;;2.53;1.58;;;29.10;99.90;;;;;;4919140;29;20656;-72
2023/09/07 16:26:33;;;;;;;2.15;1.80;;;29.10;99.90;;;;;;4919193;29;20256;-72
2023/09/07 16:29:00;;;;;;;2.83;2.05;;;29.00;99.90;;;;;;4919358;29;20206;-72
2023/09/07 16:31:27;;;;;;;2.40;1.88;;;29.00;99.90;;;;;;4918742;29;20261;-72
2023/09/07 16:33:54;;;;;;;6.18;1.70;;;28.90;99.90;;;;;;4919268;29;20205;-72
2023/09/07 16:36:21;;;;;;;2.70;1.83;;;29.00;99.90;;;;;;4919236;29;20296;-72
2023/09/07 16:38:49;;;;;;;3.30;1.60;;;29.00;99.90;;;;;;4919014;29;20737;-72
2023/09/07 16:41:16;;;;;;;2.95;1.90;;;28.90;99.90;;;;;;4918603;29;20272;-72
2023/09/07 16:43:43;;;;;;;3.58;1.85;;;28.80;99.90;;;;;;4918706;29;20324;-72
2023/09/07 16:46:10;;;;;;;3.00;1.92;;;28.80;99.90;;;;;;4918199;29;20244;-72
